Briefing drone pour Saint-marcellin

Rechercher une autre localisation

Conditions de vol :


Nous sommes le : Lundi 29 novembre 2021
Il est 22:56 UTC (23:56 LT)

Lever de soleil : 06:28 UTC (07:28 LT)
Coucher de soleil : 16:25 UTC (17:25 LT)

Météo

L'essentiel des conditions de vol

VIGILANCE MÉTÉO FRANCE - Isère (38)
Vigilance Jaune : Avalanches / Neige-verglas
METAR de LFLS
LFLS 292230Z AUTO 06004KT 030V090 9999 BKN015 OVC041 M00/M02 Q1021

Date d'émission: 29/11/2021
Heure d'émission: 22:30 UTC
Vent: 060° (variable du 030° au 090°) pour 4 KT (7 km/h)
Visibilité horizontale: > 10 km
Plafond :
- Nuages morcelés à 1500ft (457m)
- Couvert à 4100ft (1250m)
Température: 0 °C
Point de rosée: -2 °C
Humidité: 86%
Pression (QNH): 1021 hPa
TAF de LFLS
LFLS 291958Z 2919/3015 CNL

Conditions prévues :

Heure d'émission : Bulletin éffectué le 29 à 19:00 UTC
Prévision : Valide du 29 a 19:00 UTC au 30 a 15:00 UTC
Nuages : à 0ft (0 m)
WEBCAM POUR SAINT-MARCELLIN

Réglementation

Voler en sécurité

CARTES AERONAUTIQUE 1/500.000
CARTES VAC (LFLS)
SUP AIP




Chargement des AIP...
NOTAM (SAINT-MARCELLIN + Terrain à proximité / FIR )




Chargement des NOTAMS...
CONTACT PREFECTURE 38


Avertissement : Les données mises à disposition sont indicatives. Oxygène Drone ne pourra être tenu responsable de dégâts causés aux biens et aux personnes.